createdAt,value
2022-12-18T00:01:35.069Z,55.50
2022-12-18T00:04:04.498Z,51.00
2022-12-18T00:06:31.565Z,71.03
2022-12-18T00:08:58.557Z,52.90
2022-12-18T00:11:26.914Z,59.63
2022-12-18T00:13:56.579Z,50.22
2022-12-18T00:16:24.604Z,60.92
2022-12-18T00:18:56.610Z,54.15
2022-12-18T00:21:23.274Z,57.05
2022-12-18T00:23:50.502Z,77.22
2022-12-18T00:26:22.948Z,66.90
2022-12-18T00:28:49.868Z,48.50
2022-12-18T00:31:20.035Z,64.57
2022-12-18T00:33:46.750Z,37.50
2022-12-18T00:36:18.486Z,57.65
2022-12-18T00:38:45.043Z,66.50
2022-12-18T00:41:13.328Z,60.60
2022-12-18T00:43:41.074Z,51.67
2022-12-18T00:46:07.664Z,54.15
2022-12-18T00:48:34.091Z,56.97
2022-12-18T00:51:00.397Z,59.25
2022-12-18T00:53:27.025Z,53.78
2022-12-18T00:55:53.367Z,61.55
2022-12-18T00:58:19.830Z,49.67
2022-12-18T01:00:46.232Z,53.40
2022-12-18T01:03:15.783Z,50.13
2022-12-18T01:05:42.747Z,45.67
2022-12-18T01:08:09.303Z,59.00
2022-12-18T01:10:35.669Z,51.13
2022-12-18T01:13:02.130Z,48.97
2022-12-18T01:15:28.682Z,52.92
2022-12-18T01:17:55.216Z,55.22
2022-12-18T01:20:21.701Z,47.00
2022-12-18T01:22:48.048Z,57.70
2022-12-18T01:25:14.408Z,54.22
2022-12-18T01:27:40.897Z,49.67
2022-12-18T01:30:07.992Z,52.25
2022-12-18T01:32:34.679Z,45.03
2022-12-18T01:35:01.052Z,46.55
2022-12-18T01:37:27.415Z,50.08
2022-12-18T01:39:54.193Z,46.25
2022-12-18T01:42:21.462Z,49.50
2022-12-18T01:44:53.949Z,44.35
2022-12-18T01:47:25.818Z,46.58
2022-12-18T01:49:55.390Z,52.50
2022-12-18T01:52:23.225Z,39.45
2022-12-18T01:54:51.827Z,36.33
2022-12-18T01:57:18.345Z,32.45
2022-12-18T01:59:48.810Z,37.22
2022-12-18T02:02:17.556Z,45.95
2022-12-18T02:04:49.405Z,44.70
2022-12-18T02:07:32.081Z,38.45
2022-12-18T02:10:03.820Z,37.22
2022-12-18T02:12:56.210Z,35.10
2022-12-18T02:15:25.472Z,36.72
2022-12-18T02:18:05.276Z,35.47
2022-12-18T02:20:53.235Z,27.92
2022-12-18T02:23:33.276Z,42.33
2022-12-18T02:26:15.733Z,34.38
2022-12-18T02:29:01.134Z,37.97
2022-12-18T02:31:31.870Z,36.22
2022-12-18T02:34:03.366Z,27.30
2022-12-18T02:36:30.927Z,34.38
2022-12-18T02:38:59.293Z,33.75
2022-12-18T02:41:26.595Z,38.92
2022-12-18T02:43:59.358Z,32.47
2022-12-18T02:46:33.245Z,34.58
2022-12-18T02:49:24.630Z,26.42
2022-12-18T02:52:02.232Z,27.92
2022-12-18T02:54:37.411Z,34.60
2022-12-18T02:57:16.096Z,27.08
2022-12-18T02:59:55.850Z,31.73
2022-12-18T03:02:52.446Z,33.05
2022-12-18T03:05:29.181Z,28.65
2022-12-18T03:08:04.528Z,31.45
2022-12-18T03:10:35.271Z,33.60
2022-12-18T03:13:06.907Z,28.98
2022-12-18T03:15:43.138Z,30.08
2022-12-18T03:18:15.894Z,24.33
2022-12-18T03:20:45.896Z,29.40
2022-12-18T03:23:16.577Z,30.83
2022-12-18T03:25:45.529Z,23.92
2022-12-18T03:28:17.169Z,30.80
2022-12-18T03:30:46.960Z,35.17
2022-12-18T03:33:19.917Z,29.20
2022-12-18T03:35:47.682Z,33.78
2022-12-18T03:38:14.667Z,30.95
2022-12-18T03:40:44.162Z,26.77
2022-12-18T03:43:38.416Z,30.40
2022-12-18T03:46:16.543Z,28.52
2022-12-18T03:48:47.164Z,30.58
2022-12-18T03:51:25.504Z,27.17
2022-12-18T03:53:58.819Z,25.88
2022-12-18T03:56:30.443Z,26.75
2022-12-18T03:59:00.209Z,31.45
2022-12-18T04:01:32.030Z,26.35
2022-12-18T04:04:01.385Z,19.48
2022-12-18T04:06:30.267Z,31.08
2022-12-18T04:08:58.898Z,24.17
2022-12-18T04:11:25.495Z,27.33
2022-12-18T04:13:56.938Z,27.88
2022-12-18T04:16:23.362Z,18.33
2022-12-18T04:18:49.752Z,26.83
2022-12-18T04:21:16.088Z,18.40
2022-12-18T04:23:42.877Z,23.45
2022-12-18T04:26:09.580Z,21.30
2022-12-18T04:28:35.886Z,26.67
2022-12-18T04:31:02.246Z,24.02
2022-12-18T04:33:28.750Z,31.13
2022-12-18T04:35:55.132Z,26.67
2022-12-18T04:38:21.697Z,21.42
2022-12-18T04:40:48.382Z,21.35
2022-12-18T04:43:14.828Z,21.30
2022-12-18T04:45:41.167Z,28.20
2022-12-18T04:48:07.694Z,22.52
2022-12-18T04:50:34.069Z,26.23
2022-12-18T04:53:00.695Z,24.15
2022-12-18T04:55:27.833Z,31.25
2022-12-18T04:57:54.668Z,27.50
2022-12-18T05:00:21.763Z,28.52
2022-12-18T05:02:48.308Z,25.65
2022-12-18T05:05:15.018Z,21.00
2022-12-18T05:07:41.375Z,22.90
2022-12-18T05:10:08.950Z,26.38
2022-12-18T05:12:36.815Z,24.77
2022-12-18T05:15:06.913Z,24.83
2022-12-18T05:17:33.245Z,24.77
2022-12-18T05:19:59.606Z,23.08
2022-12-18T05:22:25.945Z,22.67
2022-12-18T05:24:52.243Z,26.67
2022-12-18T05:27:18.595Z,21.00
2022-12-18T05:29:44.930Z,23.50
2022-12-18T05:32:11.519Z,19.70
2022-12-18T05:34:37.880Z,20.00
2022-12-18T05:37:04.375Z,27.42
2022-12-18T05:39:30.941Z,26.25
2022-12-18T05:41:57.427Z,25.45
2022-12-18T05:44:23.911Z,16.35
2022-12-18T05:46:50.310Z,23.75
2022-12-18T05:49:16.808Z,18.15
2022-12-18T05:51:43.329Z,20.90
2022-12-18T05:54:09.684Z,20.05
2022-12-18T05:56:36.698Z,15.52
2022-12-18T05:59:03.010Z,15.02
2022-12-18T06:01:29.555Z,15.80
2022-12-18T06:03:56.314Z,17.52
2022-12-18T06:06:25.584Z,12.77
2022-12-18T06:08:52.351Z,18.73
2022-12-18T06:11:24.591Z,14.57
2022-12-18T06:13:58.248Z,19.23
2022-12-18T06:16:26.159Z,14.35
2022-12-18T06:18:52.589Z,19.77
2022-12-18T06:21:19.506Z,14.18
2022-12-18T06:23:45.882Z,18.50
2022-12-18T06:26:13.692Z,24.42
2022-12-18T06:28:40.743Z,20.48
2022-12-18T06:31:07.992Z,25.60
2022-12-18T06:33:35.415Z,23.27
2022-12-18T06:36:07.957Z,16.65
2022-12-18T06:38:35.588Z,18.23
2022-12-18T06:41:06.564Z,18.50
2022-12-18T06:43:32.878Z,18.33
2022-12-18T06:46:03.681Z,16.65
2022-12-18T06:48:30.614Z,17.27
2022-12-18T06:50:57.379Z,19.95
2022-12-18T06:53:24.235Z,19.52
2022-12-18T06:55:51.742Z,17.98
2022-12-18T06:58:19.930Z,18.10
2022-12-18T07:00:46.299Z,18.10
2022-12-18T07:03:12.740Z,17.15
2022-12-18T07:05:42.342Z,20.95
2022-12-18T07:08:08.831Z,14.50
2022-12-18T07:10:49.736Z,15.73
2022-12-18T07:13:18.770Z,17.33
2022-12-18T07:15:45.281Z,19.15
2022-12-18T07:18:11.717Z,13.73
2022-12-18T07:20:38.028Z,23.00
2022-12-18T07:23:05.670Z,19.33
2022-12-18T07:25:38.395Z,20.25
2022-12-18T07:28:05.419Z,17.23
2022-12-18T07:30:32.013Z,24.50
2022-12-18T07:32:58.422Z,15.73
2022-12-18T07:35:25.563Z,16.88
2022-12-18T07:37:52.196Z,16.67
2022-12-18T07:40:18.620Z,17.98
2022-12-18T07:42:44.937Z,19.08
2022-12-18T07:45:11.579Z,19.48
2022-12-18T07:47:38.202Z,18.40
2022-12-18T07:50:05.408Z,22.90
2022-12-18T07:52:31.743Z,16.08
2022-12-18T07:55:00.601Z,16.08
2022-12-18T07:57:49.498Z,22.52
2022-12-18T08:00:14.161Z,17.55
2022-12-18T08:02:40.649Z,15.88
2022-12-18T08:05:09.129Z,19.92
2022-12-18T08:07:35.527Z,13.27
2022-12-18T08:10:01.858Z,18.80
2022-12-18T08:12:28.202Z,15.27
2022-12-18T08:14:54.515Z,19.13
2022-12-18T08:17:22.358Z,21.77
2022-12-18T08:19:48.652Z,22.02
2022-12-18T08:22:14.960Z,21.27
2022-12-18T08:24:41.385Z,19.33
2022-12-18T08:29:54.180Z,15.45
2022-12-18T08:32:20.617Z,23.88
2022-12-18T08:34:48.279Z,20.63
2022-12-18T08:37:14.710Z,16.67
2022-12-18T08:39:41.448Z,19.70
2022-12-18T08:42:10.201Z,17.17
2022-12-18T08:44:36.930Z,19.42
2022-12-18T08:47:03.379Z,14.52
2022-12-18T08:49:29.842Z,18.48
2022-12-18T08:51:58.310Z,18.70
2022-12-18T08:54:26.167Z,17.38
2022-12-18T08:56:52.989Z,15.77
2022-12-18T08:59:20.721Z,21.30
2022-12-18T09:01:48.170Z,13.90
2022-12-18T09:04:14.649Z,21.23
2022-12-18T09:06:41.571Z,14.23
2022-12-18T09:09:11.547Z,18.42
2022-12-18T09:11:38.012Z,19.02
2022-12-18T09:14:06.202Z,17.55
2022-12-18T09:16:33.889Z,19.27
2022-12-18T09:19:00.821Z,15.43
2022-12-18T09:21:29.858Z,13.90
2022-12-18T09:23:57.361Z,14.90
2022-12-18T09:26:24.665Z,10.75
2022-12-18T09:28:51.534Z,22.27
2022-12-18T09:31:20.320Z,15.73
2022-12-18T09:33:49.455Z,13.00
2022-12-18T09:36:17.511Z,15.40
2022-12-18T09:38:45.251Z,14.20
2022-12-18T09:41:32.546Z,17.77
2022-12-18T09:44:06.216Z,16.77
2022-12-18T09:46:39.574Z,15.27
2022-12-18T09:49:13.134Z,15.73
2022-12-18T09:51:51.475Z,20.25
2022-12-18T09:54:24.724Z,17.70
2022-12-18T09:56:51.382Z,15.68
2022-12-18T09:59:24.039Z,16.52
2022-12-18T10:01:53.304Z,15.60
2022-12-18T10:04:20.237Z,15.10
2022-12-18T10:07:11.314Z,15.52
2022-12-18T10:09:59.600Z,17.15
2022-12-18T10:12:43.831Z,19.05
2022-12-18T10:15:35.212Z,14.40
2022-12-18T10:18:22.917Z,15.95
2022-12-18T10:20:53.287Z,13.23
2022-12-18T10:23:31.045Z,21.00
2022-12-18T10:26:06.719Z,15.52
2022-12-18T10:28:38.868Z,20.95
2022-12-18T10:31:16.898Z,19.67
2022-12-18T10:33:43.653Z,17.40
2022-12-18T10:36:10.188Z,19.17
2022-12-18T10:38:39.878Z,19.10
2022-12-18T10:41:24.256Z,12.20
2022-12-18T10:44:13.390Z,14.48
2022-12-18T10:46:40.408Z,14.88
2022-12-18T10:49:20.747Z,10.88
2022-12-18T10:51:49.398Z,15.20
2022-12-18T10:54:19.931Z,17.73
2022-12-18T10:56:46.790Z,14.57
2022-12-18T10:59:15.735Z,15.73
2022-12-18T11:02:00.328Z,18.02
2022-12-18T11:04:30.010Z,12.82
2022-12-18T11:07:08.460Z,16.98
2022-12-18T11:09:39.774Z,15.32
2022-12-18T11:12:20.626Z,17.05
2022-12-18T11:14:50.500Z,15.55
2022-12-18T11:17:39.903Z,14.98
2022-12-18T11:20:21.602Z,15.32
2022-12-18T11:23:16.149Z,14.23
2022-12-18T11:25:52.462Z,13.57
2022-12-18T11:28:35.083Z,15.88
2022-12-18T11:31:20.702Z,15.48
2022-12-18T11:34:27.013Z,11.77
2022-12-18T11:36:46.793Z,13.63
2022-12-18T11:39:21.446Z,13.50
2022-12-18T11:42:28.840Z,18.10
2022-12-18T11:45:09.792Z,15.77
2022-12-18T11:47:53.130Z,17.52
2022-12-18T11:50:25.249Z,16.25
2022-12-18T11:52:56.687Z,15.35
2022-12-18T11:55:44.744Z,14.98
2022-12-18T11:58:46.413Z,17.50
2022-12-18T12:01:24.938Z,16.15
2022-12-18T12:03:57.387Z,16.13
2022-12-18T12:06:43.151Z,17.17
2022-12-18T12:09:35.325Z,16.20
2022-12-18T12:12:40.271Z,15.25
2022-12-18T12:15:31.636Z,15.10
2022-12-18T12:18:20.816Z,17.98
2022-12-18T12:21:11.976Z,15.40
2022-12-18T12:23:44.170Z,10.85
2022-12-18T12:26:53.503Z,15.52
2022-12-18T12:30:04.312Z,13.38
2022-12-18T12:33:09.830Z,15.18
2022-12-18T12:36:03.686Z,15.68
2022-12-18T12:38:55.355Z,15.30
2022-12-18T12:41:26.199Z,17.63
2022-12-18T12:43:53.728Z,16.25
2022-12-18T12:46:24.916Z,14.70
2022-12-18T12:48:57.142Z,16.48
2022-12-18T12:51:32.987Z,16.30
2022-12-18T12:54:01.308Z,14.32
2022-12-18T12:57:03.118Z,15.13
2022-12-18T12:59:55.808Z,15.07
2022-12-18T13:03:16.356Z,15.02
2022-12-18T13:05:59.805Z,16.52
2022-12-18T13:08:51.524Z,16.63
2022-12-18T13:11:48.635Z,16.30
2022-12-18T13:14:24.723Z,17.85
2022-12-18T13:16:52.090Z,14.73
2022-12-18T13:19:27.240Z,16.85
2022-12-18T13:21:55.949Z,17.70
2022-12-18T13:24:27.494Z,18.48
2022-12-18T13:26:54.769Z,26.92
2022-12-18T13:29:46.884Z,19.42
2022-12-18T13:32:22.967Z,16.17
2022-12-18T13:35:22.695Z,17.02
2022-12-18T13:37:54.416Z,15.68
2022-12-18T13:43:40.961Z,12.30
2022-12-18T13:46:26.570Z,20.08
2022-12-18T13:49:00.769Z,18.70
2022-12-18T13:51:29.595Z,20.52
2022-12-18T13:54:02.207Z,18.17
2022-12-18T13:56:32.577Z,18.17
2022-12-18T13:59:12.932Z,19.08
2022-12-18T14:01:45.311Z,20.92
2022-12-18T14:04:22.398Z,15.70
2022-12-18T14:06:52.567Z,13.43
2022-12-18T14:09:25.915Z,22.55
2022-12-18T14:11:54.229Z,17.10
2022-12-18T14:14:20.683Z,19.02
2022-12-18T14:16:49.087Z,16.65
2022-12-18T14:19:18.634Z,18.48
2022-12-18T14:21:50.398Z,20.17
2022-12-18T14:24:20.189Z,17.85
2022-12-18T14:26:48.071Z,21.83
2022-12-18T14:29:24.609Z,22.88
2022-12-18T14:32:20.133Z,16.58
2022-12-18T14:34:53.941Z,18.40
2022-12-18T14:37:25.706Z,23.60
2022-12-18T14:40:07.115Z,25.13
2022-12-18T14:42:37.949Z,24.92
2022-12-18T14:45:43.690Z,18.80
2022-12-18T14:48:22.888Z,18.00
2022-12-18T14:51:18.832Z,16.48
2022-12-18T14:53:54.469Z,18.35
2022-12-18T14:56:23.168Z,22.75
2022-12-18T14:58:53.728Z,19.60
2022-12-18T15:01:39.773Z,16.35
2022-12-18T15:04:26.674Z,15.00
2022-12-18T15:07:18.034Z,14.82
2022-12-18T15:10:11.056Z,21.45
2022-12-18T15:12:39.607Z,24.27
2022-12-18T15:15:26.425Z,18.70
2022-12-18T15:18:19.390Z,17.63
2022-12-18T15:20:51.614Z,24.75
2022-12-18T15:23:24.104Z,17.95
2022-12-18T15:26:06.013Z,17.30
2022-12-18T15:28:39.537Z,19.70
2022-12-18T15:31:09.870Z,18.73
2022-12-18T15:33:39.876Z,21.52
2022-12-18T15:36:14.731Z,19.40
2022-12-18T15:38:41.541Z,17.92
2022-12-18T15:41:17.789Z,21.30
2022-12-18T15:43:48.282Z,20.35
2022-12-18T15:46:22.933Z,20.45
2022-12-18T15:48:55.423Z,18.10
2022-12-18T15:51:29.636Z,17.27
2022-12-18T15:53:59.115Z,14.70
2022-12-18T15:56:25.426Z,19.92
2022-12-18T15:58:52.535Z,21.95
2022-12-18T16:01:19.183Z,18.45
2022-12-18T16:03:46.028Z,18.10
2022-12-18T16:06:12.507Z,20.20
2022-12-18T16:08:38.810Z,23.10
2022-12-18T16:11:10.179Z,21.20
2022-12-18T16:13:36.473Z,23.83
2022-12-18T16:16:02.942Z,16.05
2022-12-18T16:18:29.332Z,20.67
2022-12-18T16:20:55.680Z,20.45
2022-12-18T16:23:21.984Z,22.90
2022-12-18T16:25:48.336Z,21.50
2022-12-18T16:28:14.635Z,19.48
2022-12-18T16:30:40.927Z,22.67
2022-12-18T16:33:07.675Z,20.45
2022-12-18T16:35:34.525Z,19.10
2022-12-18T16:38:00.832Z,22.65
2022-12-18T16:40:27.292Z,23.45
2022-12-18T16:42:53.660Z,18.45
2022-12-18T16:45:20.030Z,20.83
2022-12-18T16:47:46.458Z,21.98
2022-12-18T16:50:13.054Z,26.38
2022-12-18T16:52:39.791Z,25.65
2022-12-18T16:55:07.211Z,19.17
2022-12-18T16:57:33.863Z,23.45
2022-12-18T17:00:05.115Z,26.08
2022-12-18T17:02:32.942Z,28.20
2022-12-18T17:04:59.523Z,21.77
2022-12-18T17:07:26.966Z,19.40
2022-12-18T17:09:53.469Z,23.85
2022-12-18T17:12:20.432Z,23.60
2022-12-18T17:14:46.862Z,24.30
2022-12-18T17:17:22.349Z,23.38
2022-12-18T17:19:49.916Z,25.08
2022-12-18T17:22:16.268Z,26.50
2022-12-18T17:24:42.630Z,30.55
2022-12-18T17:27:08.969Z,28.63
2022-12-18T17:29:35.582Z,13.68
2022-12-18T17:32:01.901Z,19.85
2022-12-18T17:34:28.590Z,23.13
2022-12-18T17:36:56.467Z,21.23
2022-12-18T17:39:22.859Z,21.33
2022-12-18T17:41:49.983Z,26.98
2022-12-18T17:44:18.366Z,22.98
2022-12-18T17:46:46.333Z,26.17
2022-12-18T17:49:14.383Z,25.42
2022-12-18T17:51:41.412Z,16.15
2022-12-18T17:54:08.190Z,25.08
2022-12-18T17:56:34.579Z,19.98
2022-12-18T17:59:00.990Z,28.52
2022-12-18T18:01:28.041Z,26.60
2022-12-18T18:03:55.134Z,21.45
2022-12-18T18:06:22.859Z,23.30
2022-12-18T18:08:50.891Z,21.02
2022-12-18T18:11:19.796Z,24.65
2022-12-18T18:13:47.426Z,26.13
2022-12-18T18:16:13.902Z,21.77
2022-12-18T18:18:40.374Z,21.73
2022-12-18T18:21:08.719Z,25.83
2022-12-18T18:23:36.023Z,25.30
2022-12-18T18:26:04.500Z,19.50
2022-12-18T18:28:31.577Z,25.00
2022-12-18T18:30:58.746Z,22.35
2022-12-18T18:33:25.055Z,23.20
2022-12-18T18:35:54.197Z,17.23
2022-12-18T18:38:21.254Z,25.88
2022-12-18T18:40:47.619Z,27.38
2022-12-18T18:43:14.078Z,24.35
2022-12-18T18:45:40.459Z,30.15
2022-12-18T18:48:08.484Z,21.02
2022-12-18T18:50:34.801Z,16.15
2022-12-18T18:53:01.155Z,18.00
2022-12-18T18:55:28.551Z,25.17
2022-12-18T18:57:54.890Z,20.98
2022-12-18T19:00:21.386Z,26.08
2022-12-18T19:02:47.778Z,32.03
2022-12-18T19:05:14.318Z,25.25
2022-12-18T19:07:40.660Z,32.67
2022-12-18T19:10:07.746Z,33.17
2022-12-18T19:12:35.112Z,22.50
2022-12-18T19:15:03.606Z,19.08
2022-12-18T19:17:31.445Z,23.83
2022-12-18T19:19:57.985Z,20.92
2022-12-18T19:22:24.491Z,29.58
2022-12-18T19:24:51.255Z,27.40
2022-12-18T19:27:17.792Z,25.08
2022-12-18T19:29:44.179Z,22.98
2022-12-18T19:32:10.641Z,21.65
2022-12-18T19:34:38.774Z,19.70
2022-12-18T19:37:07.424Z,23.92
2022-12-18T19:39:34.018Z,17.95
2022-12-18T19:42:00.539Z,22.25
2022-12-18T19:44:26.871Z,23.50
2022-12-18T19:46:53.194Z,27.70
2022-12-18T19:49:22.532Z,22.00
2022-12-18T19:51:50.446Z,23.17
2022-12-18T19:54:17.832Z,22.63
2022-12-18T19:56:45.172Z,26.48
2022-12-18T19:59:11.627Z,25.65
2022-12-18T20:01:39.437Z,21.25
2022-12-18T20:04:06.142Z,30.52
2022-12-18T20:06:45.684Z,24.65
2022-12-18T20:09:12.108Z,24.80
2022-12-18T20:11:41.785Z,26.02
2022-12-18T20:14:12.165Z,24.08
2022-12-18T20:16:39.623Z,30.88
2022-12-18T20:19:07.836Z,34.17
2022-12-18T20:21:34.542Z,25.42
2022-12-18T20:24:00.823Z,26.10
2022-12-18T20:26:27.883Z,23.42
2022-12-18T20:28:55.276Z,30.88
2022-12-18T20:31:22.002Z,39.58
2022-12-18T20:33:49.932Z,28.10
2022-12-18T20:36:21.182Z,28.80
2022-12-18T20:38:49.335Z,30.52
2022-12-18T20:41:18.775Z,31.90
2022-12-18T20:43:45.926Z,30.88
2022-12-18T20:46:15.386Z,27.98
2022-12-18T20:48:42.857Z,24.52
2022-12-18T20:51:12.623Z,32.20
2022-12-18T20:53:41.678Z,25.42
2022-12-18T20:56:17.779Z,33.15
2022-12-18T20:58:48.078Z,31.90
2022-12-18T21:01:17.616Z,39.70
2022-12-18T21:03:45.428Z,28.65
2022-12-18T21:06:12.712Z,34.50
2022-12-18T21:08:39.015Z,39.60
2022-12-18T21:11:28.075Z,34.53
2022-12-18T21:13:54.394Z,33.83
2022-12-18T21:16:20.791Z,27.67
2022-12-18T21:18:47.160Z,36.15
2022-12-18T21:21:13.572Z,33.78
2022-12-18T21:23:40.215Z,35.20
2022-12-18T21:26:20.143Z,40.45
2022-12-18T21:28:47.515Z,36.92
2022-12-18T21:31:14.315Z,42.00
2022-12-18T21:33:40.884Z,39.65
2022-12-18T21:36:07.893Z,32.25
2022-12-18T21:38:34.442Z,35.17
2022-12-18T21:41:00.877Z,29.85
2022-12-18T21:43:27.283Z,30.20
2022-12-18T21:45:56.669Z,31.73
2022-12-18T21:48:25.000Z,46.45
2022-12-18T21:50:51.400Z,35.28
2022-12-18T21:53:17.806Z,34.20
2022-12-18T21:55:44.136Z,36.72
2022-12-18T21:58:10.477Z,33.15
2022-12-18T22:00:36.782Z,43.15
2022-12-18T22:03:16.961Z,42.38
2022-12-18T22:05:45.944Z,29.95
2022-12-18T22:08:14.839Z,30.02
2022-12-18T22:10:41.161Z,37.70
2022-12-18T22:13:07.752Z,45.28
2022-12-18T22:15:34.538Z,29.15
2022-12-18T22:18:00.914Z,37.47
2022-12-18T22:20:28.371Z,43.10
2022-12-18T22:22:56.883Z,45.38
2022-12-18T22:25:23.222Z,38.33
2022-12-18T22:27:49.522Z,38.25
2022-12-18T22:30:15.894Z,33.58
2022-12-18T22:32:42.224Z,34.90
2022-12-18T22:35:14.275Z,41.30
2022-12-18T22:37:42.298Z,43.42
2022-12-18T22:40:23.531Z,36.80
2022-12-18T22:42:50.720Z,35.15
2022-12-18T22:45:22.887Z,46.15
2022-12-18T22:47:49.622Z,44.50
2022-12-18T22:50:15.957Z,43.67
2022-12-18T22:52:42.426Z,41.95
2022-12-18T22:55:09.042Z,29.50
2022-12-18T22:57:35.419Z,42.15
2022-12-18T23:00:05.444Z,43.10
2022-12-18T23:02:31.923Z,49.83
2022-12-18T23:04:58.386Z,47.63
2022-12-18T23:07:24.812Z,40.00
2022-12-18T23:09:51.118Z,33.42
2022-12-18T23:12:25.571Z,33.92
2022-12-18T23:14:52.597Z,38.42
2022-12-18T23:17:18.905Z,38.47
2022-12-18T23:19:49.052Z,44.75
2022-12-18T23:22:16.495Z,33.60
2022-12-18T23:24:42.917Z,42.13
2022-12-18T23:27:11.696Z,36.78
2022-12-18T23:29:38.858Z,41.30
2022-12-18T23:32:05.263Z,40.95
2022-12-18T23:34:31.546Z,43.70
2022-12-18T23:36:57.827Z,41.70
2022-12-18T23:39:28.863Z,35.58
2022-12-18T23:42:00.353Z,40.85
2022-12-18T23:44:27.211Z,54.67
2022-12-18T23:46:53.763Z,49.63
2022-12-18T23:49:20.471Z,46.17
2022-12-18T23:51:46.815Z,43.63
2022-12-18T23:54:13.291Z,47.15
2022-12-18T23:56:39.683Z,45.90
2022-12-18T23:59:06.049Z,49.08
